Ana Sayfa
METAR-TAF:

METAR-TAF

Havaalanları :

Stanly County Airport

Albemarle, Kuzey Carolina, Amerika Birleşik Devletleri

Enlem: 35-25-00N, Boylam: 080-09-03W, yükseklik: 186 m

Güncel hava durumu gözlemi

Rapor saat 17:55 UTC de 32 dakika önce yapıldı.
Rüzgar güneydan 5 kt
Sıcaklık 5°C
Nem 60%
Basınç 1028 hPa
Görüş mesafesi: 16.1 km
1900 ft yükseklikte çok bulutlu

METAR: KVUJ 181755Z AUTO 19005KT 10SM OVC019 05/M02 A3036 RMK AO2 T00511020 10054 20012

Saat: 13:27 (18:27 UTC)


TAF: eksik

4.000'den fazla havaalanı için hava durumu gözlemleri ve tahminleri (METAR ve TAF raporları).

Kullanılabilir istasyonlar harita üzerinde sarı ve kırmızı noktalarla gösterilir.

İstasyonun adını görmek için fareyi noktanın üzerinde gezdirin.

Sonrasında hava gözlem ve tahminlerini görmek için tıklayın.

Haritayı değiştirmek için: yaklaştırmak için siyah artı işaretli yeşil düğmeye ve uzaklaştırmak için de eksi işaretli düğmeye hızla tıklayın; bitişik haritalar için yeşil okları kullanın.


METAR-TAF: